createdAt,value
2018-08-25T00:04:49.607Z,3.57
2018-08-25T00:09:59.023Z,3.40
2018-08-25T00:15:08.089Z,3.53
2018-08-25T00:20:16.901Z,3.67
2018-08-25T00:25:26.462Z,3.47
2018-08-25T00:30:35.766Z,3.67
2018-08-25T00:35:44.975Z,3.27
2018-08-25T00:40:54.370Z,3.83
2018-08-25T00:46:03.968Z,3.10
2018-08-25T00:51:13.248Z,3.83
2018-08-25T00:56:22.479Z,3.30
2018-08-25T01:01:31.208Z,3.60
2018-08-25T01:06:40.110Z,4.33
2018-08-25T01:11:49.300Z,3.90
2018-08-25T01:16:58.606Z,4.07
2018-08-25T01:22:07.556Z,3.90
2018-08-25T01:27:16.571Z,4.60
2018-08-25T01:32:25.462Z,4.23
2018-08-25T01:37:34.914Z,4.63
2018-08-25T01:42:44.176Z,4.80
2018-08-25T01:47:53.668Z,3.73
2018-08-25T01:53:02.781Z,4.30
2018-08-25T01:58:12.408Z,3.47
2018-08-25T02:03:21.622Z,3.33
2018-08-25T02:08:30.988Z,4.10
2018-08-25T02:13:40.798Z,4.00
2018-08-25T02:18:49.688Z,3.80
2018-08-25T02:23:58.948Z,3.93
2018-08-25T02:29:07.705Z,3.87
2018-08-25T02:34:16.778Z,3.60
2018-08-25T02:39:25.711Z,4.13
2018-08-25T02:44:35.051Z,4.53
2018-08-25T02:49:44.363Z,4.03
2018-08-25T02:54:53.928Z,4.53
2018-08-25T03:00:03.206Z,4.20
2018-08-25T03:05:12.381Z,4.00
2018-08-25T03:10:21.621Z,4.00
2018-08-25T03:15:30.688Z,4.10
2018-08-25T03:20:41.060Z,4.50
2018-08-25T03:25:50.319Z,4.83
2018-08-25T03:30:59.686Z,4.60
2018-08-25T03:36:09.183Z,4.37
2018-08-25T03:41:18.373Z,4.37
2018-08-25T03:46:27.646Z,4.80
2018-08-25T03:51:36.758Z,5.43
2018-08-25T03:56:45.862Z,6.87
2018-08-25T04:01:55.008Z,6.00
2018-08-25T04:07:04.918Z,6.77
2018-08-25T04:12:13.731Z,6.87
2018-08-25T04:17:22.791Z,8.43
2018-08-25T04:22:31.873Z,10.30
2018-08-25T04:27:41.201Z,9.93
2018-08-25T04:32:50.331Z,9.17
2018-08-25T04:37:59.786Z,9.30
2018-08-25T04:43:09.203Z,10.07
2018-08-25T04:48:18.237Z,10.47
2018-08-25T04:53:27.541Z,14.50
2018-08-25T04:58:36.749Z,14.63
2018-08-25T05:03:45.911Z,14.50
2018-08-25T05:08:55.081Z,14.37
2018-08-25T05:14:04.228Z,14.27
2018-08-25T05:19:13.201Z,12.03
2018-08-25T05:24:22.545Z,13.70
2018-08-25T05:29:31.861Z,13.43
2018-08-25T05:34:41.031Z,12.10
2018-08-25T05:39:50.299Z,11.13
2018-08-25T05:44:59.248Z,10.60
2018-08-25T05:50:08.917Z,10.90
2018-08-25T05:55:17.860Z,10.83
2018-08-25T06:00:28.079Z,11.20
2018-08-25T06:05:37.699Z,10.57
2018-08-25T06:10:46.688Z,11.07
2018-08-25T06:15:57.938Z,12.37
2018-08-25T06:21:07.539Z,14.67
2018-08-25T06:26:16.154Z,15.10
2018-08-25T06:31:25.580Z,15.50
2018-08-25T06:36:34.871Z,16.40
2018-08-25T06:41:43.996Z,17.20
2018-08-25T06:46:53.434Z,17.17
2018-08-25T06:52:03.082Z,18.03
2018-08-25T06:57:11.900Z,20.43
2018-08-25T07:02:20.924Z,20.40
2018-08-25T07:07:31.195Z,20.20
2018-08-25T07:12:40.652Z,22.60
2018-08-25T07:17:50.046Z,24.17
2018-08-25T07:22:58.797Z,25.37
2018-08-25T07:28:08.367Z,30.87
2018-08-25T07:33:17.207Z,32.63
2018-08-25T07:38:26.698Z,36.93
2018-08-25T07:43:36.010Z,41.63
2018-08-25T07:48:45.814Z,50.07
2018-08-25T07:53:54.819Z,52.33
2018-08-25T07:59:04.084Z,52.63
2018-08-25T08:04:13.425Z,52.00
2018-08-25T08:09:22.824Z,55.73
2018-08-25T08:14:32.008Z,53.30
2018-08-25T08:19:41.321Z,44.40
2018-08-25T08:24:50.499Z,34.93
2018-08-25T08:29:59.532Z,35.07
2018-08-25T08:35:10.412Z,25.00
2018-08-25T08:40:20.117Z,31.80
2018-08-25T08:45:28.986Z,25.07
2018-08-25T08:50:38.481Z,29.07
2018-08-25T08:55:48.228Z,20.00
2018-08-25T09:00:56.930Z,19.70
2018-08-25T09:06:06.410Z,15.07
2018-08-25T09:11:15.854Z,9.13
2018-08-25T09:16:25.163Z,10.27
2018-08-25T09:21:34.766Z,9.37
2018-08-25T09:26:44.247Z,5.80
2018-08-25T09:31:53.289Z,4.27
2018-08-25T09:37:03.627Z,3.70
2018-08-25T09:42:13.334Z,3.33
2018-08-25T09:47:22.585Z,3.17
2018-08-25T09:52:31.630Z,3.50
2018-08-25T09:57:41.440Z,2.90
2018-08-25T10:02:50.246Z,3.77
2018-08-25T10:07:59.553Z,3.50
2018-08-25T10:13:08.849Z,2.80
2018-08-25T10:18:17.666Z,2.83
2018-08-25T10:23:26.604Z,2.87
2018-08-25T10:28:35.699Z,2.10
2018-08-25T10:33:44.761Z,3.27
2018-08-25T10:38:53.474Z,2.73
2018-08-25T10:44:03.035Z,2.80
2018-08-25T10:49:12.075Z,2.97
2018-08-25T10:54:22.086Z,2.70
2018-08-25T10:59:30.865Z,2.17
2018-08-25T11:04:40.097Z,1.77
2018-08-25T11:09:49.838Z,1.93
2018-08-25T11:14:59.409Z,1.83
2018-08-25T11:20:08.835Z,1.97
2018-08-25T11:25:18.409Z,1.90
2018-08-25T11:30:27.716Z,1.60
2018-08-25T11:35:36.681Z,1.60
2018-08-25T11:40:45.618Z,4.60
2018-08-25T11:45:55.402Z,2.10
2018-08-25T11:51:07.016Z,2.30
2018-08-25T11:56:16.521Z,5.60
2018-08-25T12:01:25.906Z,7.50
2018-08-25T12:06:35.002Z,6.80
2018-08-25T12:11:44.289Z,5.00
2018-08-25T12:16:53.308Z,2.80
2018-08-25T12:22:02.765Z,2.40
2018-08-25T12:27:12.080Z,3.00
2018-08-25T12:32:21.430Z,2.10
2018-08-25T12:37:30.633Z,2.17
2018-08-25T12:42:39.910Z,3.10
2018-08-25T12:47:48.862Z,3.40
2018-08-25T12:52:57.665Z,2.87
2018-08-25T12:58:06.945Z,1.77
2018-08-25T13:03:16.499Z,1.97
2018-08-25T13:08:25.428Z,2.10
2018-08-25T13:13:34.529Z,1.80
2018-08-25T13:18:44.183Z,1.63
2018-08-25T13:23:53.711Z,1.90
2018-08-25T13:29:02.818Z,2.00
2018-08-25T13:34:12.166Z,1.90
2018-08-25T13:39:21.437Z,1.50
2018-08-25T13:44:31.647Z,1.80
2018-08-25T13:49:41.275Z,1.83
2018-08-25T13:54:50.825Z,1.57
2018-08-25T14:00:00.235Z,1.50
2018-08-25T14:05:10.674Z,1.77
2018-08-25T14:10:19.960Z,1.50
2018-08-25T14:15:29.082Z,1.60
2018-08-25T14:20:38.149Z,1.40
2018-08-25T14:25:47.492Z,1.10
2018-08-25T14:30:56.162Z,1.30
2018-08-25T14:36:11.459Z,1.10
2018-08-25T14:41:20.671Z,1.07
2018-08-25T14:46:29.659Z,0.97
2018-08-25T14:51:38.904Z,0.90
2018-08-25T14:56:47.839Z,1.13
2018-08-25T15:01:57.084Z,0.40
2018-08-25T15:07:06.281Z,0.60
2018-08-25T15:12:15.651Z,0.80
2018-08-25T15:17:24.665Z,0.60
2018-08-25T15:22:34.741Z,0.60
2018-08-25T15:27:43.892Z,0.50
2018-08-25T15:32:53.590Z,0.70
2018-08-25T15:38:03.072Z,1.00
2018-08-25T15:43:12.070Z,0.90
2018-08-25T15:48:21.899Z,0.60
2018-08-25T15:53:31.508Z,1.07
2018-08-25T15:58:40.932Z,3.50
2018-08-25T16:03:50.425Z,0.93
2018-08-25T16:08:59.702Z,0.63
2018-08-25T16:14:08.967Z,2.20
2018-08-25T16:19:17.924Z,0.93
2018-08-25T16:24:26.812Z,1.10
2018-08-25T16:29:35.686Z,1.40
2018-08-25T16:34:45.044Z,1.67
2018-08-25T16:39:54.348Z,1.20
2018-08-25T16:45:04.095Z,8.27
2018-08-25T16:50:13.376Z,3.17
2018-08-25T16:55:22.834Z,3.30
2018-08-25T17:00:31.961Z,1.57
2018-08-25T17:05:41.179Z,2.13
2018-08-25T17:10:52.837Z,1.40
2018-08-25T17:16:02.278Z,2.00
2018-08-25T17:21:11.582Z,2.60
2018-08-25T17:26:21.359Z,1.70
2018-08-25T17:31:30.909Z,1.60
2018-08-25T17:36:39.777Z,1.63
2018-08-25T17:41:49.566Z,1.40
2018-08-25T17:46:58.620Z,7.60
2018-08-25T17:52:07.639Z,1.70
2018-08-25T17:57:16.766Z,1.97
2018-08-25T18:02:25.901Z,1.47
2018-08-25T18:07:34.921Z,1.17
2018-08-25T18:12:44.413Z,1.83
2018-08-25T18:17:53.199Z,38.73
2018-08-25T18:23:02.585Z,1.47
2018-08-25T18:28:11.522Z,1.47
2018-08-25T18:33:20.934Z,1.40
2018-08-25T18:38:30.436Z,1.10
2018-08-25T18:43:39.692Z,1.30
2018-08-25T18:48:48.880Z,1.20
2018-08-25T18:53:57.985Z,1.20
2018-08-25T18:59:07.137Z,0.90
2018-08-25T19:04:16.732Z,0.80
2018-08-25T19:09:25.756Z,1.10
2018-08-25T19:14:34.776Z,0.83
2018-08-25T19:19:43.710Z,1.03
2018-08-25T19:24:53.097Z,0.70
2018-08-25T19:30:02.229Z,1.00
2018-08-25T19:35:11.321Z,1.17
2018-08-25T19:40:20.813Z,1.20
2018-08-25T19:45:31.481Z,0.90
2018-08-25T19:50:41.258Z,0.90
2018-08-25T19:55:50.130Z,0.63
2018-08-25T20:00:59.687Z,1.00
2018-08-25T20:06:09.278Z,2.30
2018-08-25T20:11:18.817Z,5.57
2018-08-25T20:16:27.841Z,13.63
2018-08-25T20:21:36.988Z,7.40
2018-08-25T20:26:46.134Z,4.13
2018-08-25T20:31:57.854Z,2.50
2018-08-25T20:37:08.949Z,3.07
2018-08-25T20:42:20.236Z,1.27
2018-08-25T20:47:31.101Z,1.13
2018-08-25T20:52:44.282Z,1.10
2018-08-25T20:57:54.380Z,0.83
2018-08-25T21:03:05.283Z,1.00
2018-08-25T21:08:16.912Z,1.00
2018-08-25T21:13:27.133Z,0.70
2018-08-25T21:18:36.098Z,0.80
2018-08-25T21:23:45.276Z,0.90
2018-08-25T21:28:54.686Z,0.80
2018-08-25T21:34:04.012Z,0.67
2018-08-25T21:39:13.281Z,2.40
2018-08-25T21:44:22.138Z,3.30
2018-08-25T21:49:31.674Z,4.10
2018-08-25T21:54:41.072Z,2.10
2018-08-25T21:59:50.418Z,3.53
2018-08-25T22:04:59.565Z,1.33
2018-08-25T22:10:08.572Z,1.00
2018-08-25T22:15:17.963Z,1.00
2018-08-25T22:20:26.603Z,2.23
2018-08-25T22:25:35.850Z,1.70
2018-08-25T22:30:45.156Z,1.17
2018-08-25T22:35:53.860Z,0.93
2018-08-25T22:41:02.803Z,1.00
2018-08-25T22:46:12.208Z,0.97
2018-08-25T22:51:21.410Z,1.07
2018-08-25T22:56:30.098Z,0.97
2018-08-25T23:01:39.401Z,1.20
2018-08-25T23:06:48.491Z,1.10
2018-08-25T23:11:57.252Z,1.00
2018-08-25T23:17:06.164Z,1.30
2018-08-25T23:22:14.909Z,1.30
2018-08-25T23:27:23.674Z,1.70
2018-08-25T23:32:32.657Z,1.30
2018-08-25T23:37:42.234Z,1.50
2018-08-25T23:42:51.547Z,1.10
2018-08-25T23:48:00.302Z,1.47
2018-08-25T23:53:09.227Z,2.40
2018-08-25T23:58:19.849Z,2.97
